AFR34R LFPG-EGLL
Flight info
| Callsign | AFR34R |
|---|---|
| Flight time | 0h 48m |
| Altitude | 20000 |
| Route | LFPG/09R OPALE DCT KESAX DCT DIMAL DCT ALESO |
| Aircraft | BCS3/M-SBDE2E3GIRWXY/LB1 |
Departure
| Time | 2026-05-08 19:36 |
|---|---|
| Airport | Charles de Gaulle International Airport (LFPG) |
Arrival
| Time | 2026-05-08 20:24 |
|---|---|
| Airport | London Heathrow Airport (EGLL) |
| Time | Latitude | Longitude | Altitude | Speed | Heading |
|---|---|---|---|---|---|
| 2026-05-08 18:53 | 49.00677 | 2.57329 | 354 ft | 0 kts | 135° |
| 2026-05-08 19:15 | 49.00681 | 2.57324 | 362 ft | 2 kts | 134° |
| 2026-05-08 19:15 | 49.00690 | 2.57309 | 362 ft | 2 kts | 135° |
| 2026-05-08 19:15 | 49.00700 | 2.57294 | 359 ft | 2 kts | 135° |
| 2026-05-08 19:15 | 49.00710 | 2.57280 | 361 ft | 2 kts | 137° |
| 2026-05-08 19:16 | 49.00720 | 2.57267 | 363 ft | 2 kts | 142° |
| 2026-05-08 19:16 | 49.00728 | 2.57258 | 361 ft | 1 kts | 156° |
| 2026-05-08 19:16 | 49.00735 | 2.57254 | 362 ft | 1 kts | 188° |
| 2026-05-08 19:16 | 49.00740 | 2.57256 | 363 ft | 1 kts | 213° |
| 2026-05-08 19:17 | 49.00745 | 2.57261 | 362 ft | 1 kts | 224° |
| 2026-05-08 19:17 | 49.00748 | 2.57266 | 361 ft | 1 kts | 229° |
| 2026-05-08 19:17 | 49.00751 | 2.57272 | 358 ft | 0 kts | 230° |
| 2026-05-08 19:19 | 49.00752 | 2.57272 | 357 ft | 1 kts | 231° |
| 2026-05-08 19:20 | 49.00757 | 2.57282 | 358 ft | 1 kts | 255° |
| 2026-05-08 19:20 | 49.00758 | 2.57285 | 358 ft | 1 kts | 270° |
| 2026-05-08 19:20 | 49.00756 | 2.57299 | 356 ft | 0 kts | 274° |
| 2026-05-08 19:20 | 49.00756 | 2.57301 | 356 ft | 0 kts | 274° |
| 2026-05-08 19:21 | 49.00758 | 2.57261 | 358 ft | 10 kts | 279° |
| 2026-05-08 19:22 | 49.00790 | 2.57216 | 361 ft | 0 kts | 346° |
| 2026-05-08 19:22 | 49.00790 | 2.57215 | 356 ft | 1 kts | 346° |
| 2026-05-08 19:22 | 49.00823 | 2.57205 | 357 ft | 5 kts | 342° |
| 2026-05-08 19:23 | 49.00845 | 2.57174 | 357 ft | 4 kts | 300° |
| 2026-05-08 19:23 | 49.00852 | 2.57122 | 363 ft | 8 kts | 274° |
| 2026-05-08 19:23 | 49.00849 | 2.56999 | 362 ft | 15 kts | 265° |
| 2026-05-08 19:23 | 49.00840 | 2.56836 | 358 ft | 13 kts | 265° |
| 2026-05-08 19:24 | 49.00833 | 2.56717 | 356 ft | 9 kts | 265° |
| 2026-05-08 19:24 | 49.00829 | 2.56640 | 356 ft | 7 kts | 265° |
| 2026-05-08 19:24 | 49.00825 | 2.56557 | 356 ft | 9 kts | 265° |
| 2026-05-08 19:24 | 49.00817 | 2.56456 | 358 ft | 10 kts | 262° |
| 2026-05-08 19:25 | 49.00807 | 2.56353 | 362 ft | 11 kts | 262° |
| 2026-05-08 19:25 | 49.00791 | 2.56171 | 359 ft | 23 kts | 262° |
| 2026-05-08 19:25 | 49.00763 | 2.55884 | 359 ft | 27 kts | 260° |
| 2026-05-08 19:25 | 49.00745 | 2.55673 | 356 ft | 14 kts | 262° |
| 2026-05-08 19:26 | 49.00734 | 2.55550 | 362 ft | 10 kts | 262° |
| 2026-05-08 19:26 | 49.00728 | 2.55468 | 356 ft | 6 kts | 264° |
| 2026-05-08 19:26 | 49.00728 | 2.55389 | 356 ft | 10 kts | 281° |
| 2026-05-08 19:26 | 49.00798 | 2.55318 | 362 ft | 15 kts | 343° |
| 2026-05-08 19:27 | 49.00919 | 2.55267 | 356 ft | 21 kts | 345° |
| 2026-05-08 19:27 | 49.01056 | 2.55207 | 363 ft | 19 kts | 345° |
| 2026-05-08 19:27 | 49.01153 | 2.55164 | 362 ft | 9 kts | 344° |
| 2026-05-08 19:27 | 49.01199 | 2.55144 | 362 ft | 5 kts | 344° |
| 2026-05-08 19:28 | 49.01215 | 2.55137 | 356 ft | 0 kts | 344° |
| 2026-05-08 19:28 | 49.01269 | 2.55187 | 356 ft | 14 kts | 40° |
| 2026-05-08 19:28 | 49.01361 | 2.55207 | 358 ft | 12 kts | 350° |
| 2026-05-08 19:28 | 49.01467 | 2.55172 | 359 ft | 19 kts | 351° |
| 2026-05-08 19:29 | 49.01623 | 2.55150 | 356 ft | 23 kts | 356° |
| 2026-05-08 19:29 | 49.01765 | 2.55138 | 359 ft | 18 kts | 355° |
| 2026-05-08 19:29 | 49.01854 | 2.55081 | 356 ft | 12 kts | 295° |
| 2026-05-08 19:29 | 49.01856 | 2.54970 | 356 ft | 10 kts | 266° |
| 2026-05-08 19:30 | 49.01851 | 2.54871 | 356 ft | 9 kts | 264° |
| 2026-05-08 19:30 | 49.01845 | 2.54781 | 360 ft | 9 kts | 265° |
| 2026-05-08 19:30 | 49.01832 | 2.54530 | 356 ft | 31 kts | 266° |
| 2026-05-08 19:30 | 49.01821 | 2.54322 | 357 ft | 28 kts | 265° |
| 2026-05-08 19:31 | 49.01807 | 2.54051 | 357 ft | 23 kts | 258° |
| 2026-05-08 19:31 | 49.01793 | 2.53840 | 360 ft | 18 kts | 266° |
| 2026-05-08 19:31 | 49.01783 | 2.53644 | 355 ft | 28 kts | 265° |
| 2026-05-08 19:31 | 49.01757 | 2.53159 | 361 ft | 34 kts | 266° |
| 2026-05-08 19:32 | 49.01746 | 2.52941 | 357 ft | 28 kts | 263° |
| 2026-05-08 19:32 | 49.01734 | 2.52702 | 355 ft | 18 kts | 266° |
| 2026-05-08 19:32 | 49.01725 | 2.52538 | 355 ft | 15 kts | 265° |
| 2026-05-08 19:32 | 49.01719 | 2.52394 | 361 ft | 1 kts | 283° |
| 2026-05-08 19:33 | 49.01750 | 2.52367 | 355 ft | 11 kts | 352° |
| 2026-05-08 19:33 | 49.01857 | 2.52360 | 355 ft | 15 kts | 354° |
| 2026-05-08 19:33 | 49.01941 | 2.52348 | 358 ft | 7 kts | 356° |
| 2026-05-08 19:33 | 49.01965 | 2.52345 | 359 ft | 0 kts | 355° |
| 2026-05-08 19:34 | 49.01966 | 2.52345 | 359 ft | 1 kts | 355° |
| 2026-05-08 19:34 | 49.02011 | 2.52341 | 362 ft | 12 kts | 358° |
| 2026-05-08 19:34 | 49.02112 | 2.52361 | 360 ft | 8 kts | 54° |
| 2026-05-08 19:35 | 49.02124 | 2.52422 | 356 ft | 6 kts | 88° |
| 2026-05-08 19:35 | 49.02125 | 2.52442 | 356 ft | 0 kts | 86° |
| 2026-05-08 19:36 | 49.02139 | 2.52713 | 357 ft | 78 kts | 85° |
| 2026-05-08 19:36 | 49.02215 | 2.54153 | 446 ft | 187 kts | 84° |
| 2026-05-08 19:36 | 49.02321 | 2.56333 | 1065 ft | 201 kts | 84° |
| 2026-05-08 19:36 | 49.02409 | 2.58177 | 1528 ft | 152 kts | 84° |
| 2026-05-08 19:37 | 49.02489 | 2.59765 | 1616 ft | 151 kts | 84° |
| 2026-05-08 19:37 | 49.02591 | 2.61373 | 2090 ft | 153 kts | 84° |
| 2026-05-08 19:37 | 49.02692 | 2.63040 | 2871 ft | 168 kts | 85° |
| 2026-05-08 19:37 | 49.02798 | 2.64867 | 4042 ft | 178 kts | 85° |
| 2026-05-08 19:38 | 49.02905 | 2.66782 | 5338 ft | 184 kts | 86° |
| 2026-05-08 19:38 | 49.03008 | 2.68751 | 6583 ft | 189 kts | 87° |
| 2026-05-08 19:38 | 49.03303 | 2.70719 | 7731 ft | 198 kts | 58° |
| 2026-05-08 19:38 | 49.04439 | 2.71963 | 8665 ft | 216 kts | 8° |
| 2026-05-08 19:39 | 49.05971 | 2.71694 | 9568 ft | 240 kts | 336° |
| 2026-05-08 19:39 | 49.07681 | 2.70578 | 9850 ft | 292 kts | 334° |
| 2026-05-08 19:39 | 49.09553 | 2.69384 | 9946 ft | 291 kts | 336° |
| 2026-05-08 19:39 | 49.11428 | 2.68301 | 9990 ft | 292 kts | 338° |
| 2026-05-08 19:40 | 49.13348 | 2.67302 | 10003 ft | 291 kts | 340° |
| 2026-05-08 19:40 | 49.15281 | 2.66378 | 10017 ft | 291 kts | 341° |
| 2026-05-08 19:40 | 49.17226 | 2.65513 | 10022 ft | 291 kts | 342° |
| 2026-05-08 19:40 | 49.19171 | 2.64673 | 10020 ft | 290 kts | 340° |
| 2026-05-08 19:41 | 49.21018 | 2.63459 | 10029 ft | 289 kts | 332° |
| 2026-05-08 19:41 | 49.22790 | 2.61997 | 10028 ft | 288 kts | 328° |
| 2026-05-08 19:41 | 49.24579 | 2.60356 | 10421 ft | 320 kts | 327° |
| 2026-05-08 19:41 | 49.26602 | 2.58462 | 10864 ft | 362 kts | 327° |
| 2026-05-08 19:42 | 49.28805 | 2.56419 | 11302 ft | 372 kts | 328° |
| 2026-05-08 19:42 | 49.30984 | 2.54261 | 11757 ft | 374 kts | 322° |
| 2026-05-08 19:42 | 49.33053 | 2.51799 | 12216 ft | 378 kts | 321° |
| 2026-05-08 19:42 | 49.35222 | 2.49490 | 12682 ft | 381 kts | 325° |
| 2026-05-08 19:43 | 49.37397 | 2.47139 | 13165 ft | 385 kts | 322° |
| 2026-05-08 19:43 | 49.39556 | 2.44668 | 13640 ft | 388 kts | 323° |
| 2026-05-08 19:43 | 49.41784 | 2.42299 | 14096 ft | 391 kts | 324° |
| 2026-05-08 19:43 | 49.43996 | 2.39834 | 14528 ft | 394 kts | 322° |
| 2026-05-08 19:44 | 49.46216 | 2.37352 | 14969 ft | 396 kts | 324° |
| 2026-05-08 19:44 | 49.48478 | 2.34908 | 15414 ft | 399 kts | 324° |
| 2026-05-08 19:44 | 49.50736 | 2.32377 | 15866 ft | 402 kts | 323° |
| 2026-05-08 19:44 | 49.53015 | 2.29848 | 16326 ft | 406 kts | 324° |
| 2026-05-08 19:45 | 49.55323 | 2.27318 | 16792 ft | 409 kts | 323° |
| 2026-05-08 19:45 | 49.57599 | 2.24766 | 17259 ft | 412 kts | 323° |
| 2026-05-08 19:45 | 49.59931 | 2.22177 | 17739 ft | 414 kts | 324° |
| 2026-05-08 19:45 | 49.62281 | 2.19579 | 18223 ft | 417 kts | 324° |
| 2026-05-08 19:46 | 49.64634 | 2.16936 | 18667 ft | 420 kts | 324° |
| 2026-05-08 19:46 | 49.67007 | 2.14301 | 19092 ft | 418 kts | 324° |
| 2026-05-08 19:46 | 49.71590 | 2.09169 | 19822 ft | 377 kts | 324° |
| 2026-05-08 19:47 | 49.73711 | 2.06807 | 19954 ft | 377 kts | 324° |
| 2026-05-08 19:47 | 49.75833 | 2.04427 | 20018 ft | 378 kts | 324° |
| 2026-05-08 19:47 | 49.77961 | 2.02031 | 20051 ft | 378 kts | 324° |
| 2026-05-08 19:47 | 49.80090 | 1.99650 | 20065 ft | 378 kts | 324° |
| 2026-05-08 19:48 | 49.82222 | 1.97249 | 20072 ft | 378 kts | 323° |
| 2026-05-08 19:48 | 49.84320 | 1.94884 | 20081 ft | 378 kts | 324° |
| 2026-05-08 19:48 | 49.86445 | 1.92497 | 20083 ft | 378 kts | 324° |
| 2026-05-08 19:48 | 49.88608 | 1.90165 | 20084 ft | 378 kts | 325° |
| 2026-05-08 19:49 | 49.90701 | 1.87713 | 20089 ft | 378 kts | 320° |
| 2026-05-08 19:49 | 49.92706 | 1.85060 | 20087 ft | 378 kts | 321° |
| 2026-05-08 19:49 | 49.94808 | 1.82612 | 20086 ft | 378 kts | 323° |
| 2026-05-08 19:49 | 49.96861 | 1.80042 | 20088 ft | 378 kts | 320° |
| 2026-05-08 19:50 | 49.98908 | 1.77468 | 20084 ft | 379 kts | 322° |
| 2026-05-08 19:50 | 50.01000 | 1.74977 | 20086 ft | 379 kts | 321° |
| 2026-05-08 19:50 | 50.03040 | 1.72379 | 20091 ft | 379 kts | 320° |
| 2026-05-08 19:50 | 50.05151 | 1.69916 | 20090 ft | 380 kts | 326° |
| 2026-05-08 19:51 | 50.07375 | 1.67691 | 20091 ft | 380 kts | 328° |
| 2026-05-08 19:51 | 50.09636 | 1.65553 | 20089 ft | 380 kts | 329° |
| 2026-05-08 19:51 | 50.12001 | 1.63716 | 20091 ft | 381 kts | 336° |
| 2026-05-08 19:51 | 50.14453 | 1.62146 | 20090 ft | 381 kts | 336° |
| 2026-05-08 19:52 | 50.16832 | 1.60329 | 20089 ft | 381 kts | 332° |
| 2026-05-08 19:52 | 50.19230 | 1.58568 | 20091 ft | 382 kts | 336° |
| 2026-05-08 19:52 | 50.21660 | 1.56890 | 20092 ft | 382 kts | 334° |
| 2026-05-08 19:52 | 50.24043 | 1.55063 | 20091 ft | 382 kts | 334° |
| 2026-05-08 19:53 | 50.26460 | 1.53342 | 20091 ft | 382 kts | 335° |
| 2026-05-08 19:53 | 50.28878 | 1.51603 | 20090 ft | 382 kts | 334° |
| 2026-05-08 19:53 | 50.31276 | 1.49796 | 20091 ft | 383 kts | 334° |
| 2026-05-08 19:53 | 50.33699 | 1.48063 | 20092 ft | 383 kts | 335° |
| 2026-05-08 19:54 | 50.36111 | 1.46302 | 20092 ft | 383 kts | 334° |
| 2026-05-08 19:54 | 50.38487 | 1.44528 | 20093 ft | 383 kts | 334° |
| 2026-05-08 19:54 | 50.40906 | 1.42781 | 20091 ft | 383 kts | 334° |
| 2026-05-08 19:54 | 50.43323 | 1.41007 | 20093 ft | 383 kts | 334° |
| 2026-05-08 19:55 | 50.45727 | 1.39202 | 20092 ft | 383 kts | 332° |
| 2026-05-08 19:55 | 50.47981 | 1.36978 | 20092 ft | 383 kts | 323° |
| 2026-05-08 19:55 | 50.50063 | 1.34372 | 20093 ft | 383 kts | 319° |
| 2026-05-08 19:55 | 50.52043 | 1.31573 | 20093 ft | 383 kts | 316° |
| 2026-05-08 19:56 | 50.53948 | 1.28656 | 20098 ft | 382 kts | 314° |
| 2026-05-08 19:56 | 50.55810 | 1.25664 | 20097 ft | 383 kts | 313° |
| 2026-05-08 19:56 | 50.57669 | 1.22664 | 20103 ft | 383 kts | 313° |
| 2026-05-08 19:56 | 50.59526 | 1.19666 | 20103 ft | 383 kts | 313° |
| 2026-05-08 19:57 | 50.61390 | 1.16668 | 20105 ft | 383 kts | 314° |
| 2026-05-08 19:57 | 50.63260 | 1.13674 | 20109 ft | 384 kts | 313° |
| 2026-05-08 19:57 | 50.65134 | 1.10679 | 20117 ft | 384 kts | 313° |
| 2026-05-08 19:57 | 50.67015 | 1.07690 | 20119 ft | 384 kts | 313° |
| 2026-05-08 19:58 | 50.68860 | 1.04647 | 20123 ft | 384 kts | 313° |
| 2026-05-08 19:58 | 50.70719 | 1.01620 | 20128 ft | 384 kts | 313° |
| 2026-05-08 19:58 | 50.72585 | 0.98603 | 20130 ft | 384 kts | 313° |
| 2026-05-08 19:58 | 50.74456 | 0.95587 | 20134 ft | 385 kts | 313° |
| 2026-05-08 19:59 | 50.76332 | 0.92573 | 20133 ft | 385 kts | 313° |
| 2026-05-08 19:59 | 50.78208 | 0.89560 | 20136 ft | 385 kts | 313° |
| 2026-05-08 19:59 | 50.80044 | 0.86617 | 20136 ft | 362 kts | 313° |
| 2026-05-08 19:59 | 50.81747 | 0.83902 | 20137 ft | 335 kts | 313° |
| 2026-05-08 20:00 | 50.83371 | 0.81320 | 20140 ft | 331 kts | 313° |
| 2026-05-08 20:00 | 50.84993 | 0.78738 | 20140 ft | 331 kts | 313° |
| 2026-05-08 20:00 | 50.86614 | 0.76154 | 20140 ft | 330 kts | 313° |
| 2026-05-08 20:00 | 50.88227 | 0.73576 | 20138 ft | 330 kts | 313° |
| 2026-05-08 20:01 | 50.89844 | 0.70987 | 20137 ft | 329 kts | 313° |
| 2026-05-08 20:01 | 50.91435 | 0.68438 | 20139 ft | 329 kts | 313° |
| 2026-05-08 20:01 | 50.93042 | 0.65861 | 20137 ft | 329 kts | 313° |
| 2026-05-08 20:01 | 50.94648 | 0.63283 | 20133 ft | 329 kts | 313° |
| 2026-05-08 20:02 | 50.96254 | 0.60703 | 20132 ft | 329 kts | 313° |
| 2026-05-08 20:02 | 50.97860 | 0.58122 | 20131 ft | 328 kts | 313° |
| 2026-05-08 20:02 | 50.99462 | 0.55544 | 20150 ft | 328 kts | 313° |
| 2026-05-08 20:02 | 51.01068 | 0.52963 | 20153 ft | 328 kts | 313° |
| 2026-05-08 20:03 | 51.02672 | 0.50385 | 20157 ft | 328 kts | 313° |
| 2026-05-08 20:03 | 51.04280 | 0.47801 | 20161 ft | 328 kts | 313° |
| 2026-05-08 20:03 | 51.05887 | 0.45220 | 20166 ft | 328 kts | 313° |
| 2026-05-08 20:03 | 51.07495 | 0.42640 | 20170 ft | 328 kts | 313° |
| 2026-05-08 20:04 | 51.09101 | 0.40064 | 20170 ft | 328 kts | 313° |
| 2026-05-08 20:04 | 51.10710 | 0.37483 | 20172 ft | 329 kts | 313° |
| 2026-05-08 20:04 | 51.12333 | 0.34881 | 19759 ft | 332 kts | 313° |
| 2026-05-08 20:04 | 51.13961 | 0.32279 | 19319 ft | 329 kts | 313° |
| 2026-05-08 20:05 | 51.15575 | 0.29706 | 18896 ft | 327 kts | 313° |
| 2026-05-08 20:05 | 51.17182 | 0.27150 | 18474 ft | 326 kts | 313° |
| 2026-05-08 20:05 | 51.18788 | 0.24602 | 17989 ft | 324 kts | 313° |
| 2026-05-08 20:05 | 51.20374 | 0.22081 | 17526 ft | 320 kts | 313° |
| 2026-05-08 20:06 | 51.21941 | 0.19586 | 17044 ft | 316 kts | 313° |
| 2026-05-08 20:06 | 51.23489 | 0.17117 | 16536 ft | 313 kts | 313° |
| 2026-05-08 20:06 | 51.25001 | 0.14698 | 16078 ft | 310 kts | 313° |
| 2026-05-08 20:06 | 51.26513 | 0.12272 | 15631 ft | 307 kts | 313° |
| 2026-05-08 20:07 | 51.28016 | 0.09856 | 15177 ft | 303 kts | 313° |
| 2026-05-08 20:07 | 51.29479 | 0.07495 | 14736 ft | 295 kts | 313° |
| 2026-05-08 20:07 | 51.30909 | 0.05183 | 14299 ft | 289 kts | 313° |
| 2026-05-08 20:07 | 51.32279 | 0.02880 | 13856 ft | 282 kts | 304° |
| 2026-05-08 20:08 | 51.33192 | 0.00188 | 13484 ft | 273 kts | 293° |
| 2026-05-08 20:08 | 51.33960 | -0.02570 | 13056 ft | 270 kts | 291° |
| 2026-05-08 20:08 | 51.34692 | -0.05325 | 12603 ft | 267 kts | 291° |
| 2026-05-08 20:08 | 51.35402 | -0.08057 | 12144 ft | 264 kts | 291° |
| 2026-05-08 20:09 | 51.36099 | -0.10764 | 11690 ft | 261 kts | 291° |
| 2026-05-08 20:09 | 51.36771 | -0.13389 | 11173 ft | 237 kts | 291° |
| 2026-05-08 20:09 | 51.37346 | -0.15644 | 10737 ft | 218 kts | 286° |
| 2026-05-08 20:09 | 51.37397 | -0.18039 | 10450 ft | 218 kts | 246° |
| 2026-05-08 20:10 | 51.36628 | -0.20114 | 10148 ft | 216 kts | 234° |
| 2026-05-08 20:10 | 51.35719 | -0.22014 | 9813 ft | 215 kts | 231° |
| 2026-05-08 20:10 | 51.34783 | -0.23861 | 9421 ft | 214 kts | 230° |
| 2026-05-08 20:10 | 51.33967 | -0.25828 | 9025 ft | 213 kts | 255° |
| 2026-05-08 20:11 | 51.33928 | -0.28186 | 8551 ft | 217 kts | 276° |
| 2026-05-08 20:11 | 51.34169 | -0.30567 | 8234 ft | 214 kts | 279° |
| 2026-05-08 20:11 | 51.34451 | -0.32861 | 8107 ft | 208 kts | 280° |
| 2026-05-08 20:11 | 51.34748 | -0.35138 | 8044 ft | 210 kts | 281° |
| 2026-05-08 20:12 | 51.35052 | -0.37420 | 7980 ft | 210 kts | 281° |
| 2026-05-08 20:12 | 51.35359 | -0.39715 | 7673 ft | 213 kts | 281° |
| 2026-05-08 20:12 | 51.35671 | -0.42042 | 7307 ft | 213 kts | 281° |
| 2026-05-08 20:12 | 51.35976 | -0.44318 | 7141 ft | 206 kts | 281° |
| 2026-05-08 20:13 | 51.36280 | -0.46598 | 6790 ft | 213 kts | 281° |
| 2026-05-08 20:13 | 51.36590 | -0.48943 | 6342 ft | 218 kts | 281° |
| 2026-05-08 20:13 | 51.36902 | -0.51339 | 5873 ft | 221 kts | 281° |
| 2026-05-08 20:13 | 51.37214 | -0.53741 | 5492 ft | 220 kts | 281° |
| 2026-05-08 20:14 | 51.37523 | -0.56138 | 5126 ft | 219 kts | 281° |
| 2026-05-08 20:14 | 51.37829 | -0.58526 | 4747 ft | 219 kts | 281° |
| 2026-05-08 20:14 | 51.38130 | -0.60880 | 4375 ft | 218 kts | 281° |
| 2026-05-08 20:14 | 51.38429 | -0.63232 | 4160 ft | 210 kts | 281° |
| 2026-05-08 20:15 | 51.38715 | -0.65472 | 4058 ft | 203 kts | 281° |
| 2026-05-08 20:15 | 51.38999 | -0.67680 | 4031 ft | 202 kts | 281° |
| 2026-05-08 20:15 | 51.39283 | -0.69875 | 4012 ft | 201 kts | 281° |
| 2026-05-08 20:15 | 51.39565 | -0.72058 | 3996 ft | 200 kts | 281° |
| 2026-05-08 20:16 | 51.39846 | -0.74235 | 3990 ft | 199 kts | 281° |
| 2026-05-08 20:16 | 51.40125 | -0.76397 | 3988 ft | 199 kts | 281° |
| 2026-05-08 20:16 | 51.40406 | -0.78575 | 3985 ft | 198 kts | 281° |
| 2026-05-08 20:16 | 51.40687 | -0.80744 | 3987 ft | 199 kts | 281° |
| 2026-05-08 20:17 | 51.40967 | -0.82906 | 3984 ft | 198 kts | 281° |
| 2026-05-08 20:17 | 51.41247 | -0.85072 | 3984 ft | 198 kts | 281° |
| 2026-05-08 20:17 | 51.41681 | -0.87155 | 3994 ft | 199 kts | 309° |
| 2026-05-08 20:17 | 51.42816 | -0.88332 | 4031 ft | 199 kts | 357° |
| 2026-05-08 20:18 | 51.44104 | -0.87815 | 4062 ft | 195 kts | 45° |
| 2026-05-08 20:18 | 51.44998 | -0.86216 | 4030 ft | 193 kts | 45° |
| 2026-05-08 20:18 | 51.45680 | -0.85300 | 4015 ft | 193 kts | 47° |
| 2026-05-08 20:18 | 51.46204 | -0.83435 | 4092 ft | 188 kts | 96° |
| 2026-05-08 20:19 | 51.46023 | -0.80666 | 4027 ft | 188 kts | 96° |
| 2026-05-08 20:19 | 51.46275 | -0.78641 | 4019 ft | 191 kts | 63° |
| 2026-05-08 20:19 | 51.46990 | -0.76839 | 3992 ft | 191 kts | 60° |
| 2026-05-08 20:19 | 51.47683 | -0.75034 | 3993 ft | 189 kts | 75° |
| 2026-05-08 20:20 | 51.47755 | -0.72970 | 3716 ft | 185 kts | 98° |
| 2026-05-08 20:20 | 51.47654 | -0.71608 | 3214 ft | 182 kts | 100° |
| 2026-05-08 20:20 | 51.47574 | -0.69701 | 2834 ft | 163 kts | 93° |
| 2026-05-08 20:20 | 51.47591 | -0.67939 | 2490 ft | 153 kts | 91° |
| 2026-05-08 20:21 | 51.47621 | -0.66275 | 2215 ft | 146 kts | 92° |
| 2026-05-08 20:21 | 51.47646 | -0.64739 | 2067 ft | 132 kts | 92° |
| 2026-05-08 20:21 | 51.47647 | -0.63265 | 1949 ft | 126 kts | 93° |
| 2026-05-08 20:21 | 51.47646 | -0.61877 | 1774 ft | 125 kts | 94° |
| 2026-05-08 20:22 | 51.47644 | -0.60489 | 1567 ft | 124 kts | 93° |
| 2026-05-08 20:22 | 51.47645 | -0.59115 | 1395 ft | 122 kts | 93° |
| 2026-05-08 20:22 | 51.47650 | -0.57674 | 1313 ft | 137 kts | 90° |
| 2026-05-08 20:22 | 51.47712 | -0.56139 | 1256 ft | 139 kts | 88° |
| 2026-05-08 20:23 | 51.47727 | -0.54486 | 985 ft | 152 kts | 92° |
| 2026-05-08 20:23 | 51.47718 | -0.52920 | 701 ft | 135 kts | 89° |
| 2026-05-08 20:23 | 51.47732 | -0.51423 | 534 ft | 136 kts | 90° |
| 2026-05-08 20:23 | 51.47744 | -0.49916 | 336 ft | 134 kts | 89° |
| 2026-05-08 20:24 | 51.47750 | -0.48433 | 158 ft | 126 kts | 91° |
| 2026-05-08 20:24 | 51.47752 | -0.47223 | 87 ft | 80 kts | 89° |
| 2026-05-08 20:24 | 51.47756 | -0.46475 | 93 ft | 55 kts | 89° |
| 2026-05-08 20:24 | 51.47758 | -0.45945 | 89 ft | 44 kts | 90° |
| 2026-05-08 20:25 | 51.47735 | -0.45512 | 89 ft | 25 kts | 122° |
| 2026-05-08 20:25 | 51.47661 | -0.45470 | 87 ft | 0 kts | 178° |
| 2026-05-08 20:26 | 51.47654 | -0.45470 | 87 ft | 3 kts | 178° |
| 2026-05-08 20:26 | 51.47601 | -0.45513 | 87 ft | 14 kts | 245° |
| 2026-05-08 20:26 | 51.47595 | -0.45730 | 89 ft | 26 kts | 269° |
| 2026-05-08 20:26 | 51.47593 | -0.46029 | 90 ft | 27 kts | 269° |
| 2026-05-08 20:27 | 51.47594 | -0.46329 | 91 ft | 27 kts | 270° |
| 2026-05-08 20:27 | 51.47592 | -0.46637 | 88 ft | 28 kts | 270° |
| 2026-05-08 20:27 | 51.47582 | -0.46951 | 90 ft | 28 kts | 269° |
| 2026-05-08 20:27 | 51.47581 | -0.47269 | 91 ft | 26 kts | 270° |
| 2026-05-08 20:28 | 51.47580 | -0.47561 | 91 ft | 27 kts | 269° |
| 2026-05-08 20:28 | 51.47580 | -0.47861 | 91 ft | 27 kts | 269° |
| 2026-05-08 20:28 | 51.47575 | -0.48148 | 88 ft | 24 kts | 268° |
| 2026-05-08 20:28 | 51.47575 | -0.48380 | 88 ft | 17 kts | 278° |
| 2026-05-08 20:29 | 51.47536 | -0.48476 | 90 ft | 9 kts | 184° |
| 2026-05-08 20:29 | 51.47481 | -0.48479 | 87 ft | 11 kts | 179° |
| 2026-05-08 20:29 | 51.47382 | -0.48477 | 87 ft | 14 kts | 180° |
| 2026-05-08 20:29 | 51.47319 | -0.48511 | 89 ft | 6 kts | 244° |
| 2026-05-08 20:30 | 51.47316 | -0.48553 | 88 ft | 2 kts | 269° |
| 2026-05-08 20:30 | 51.47316 | -0.48562 | 88 ft | 4 kts | 269° |
| 2026-05-08 20:30 | 51.47315 | -0.48599 | 88 ft | 1 kts | 269° |
| 2026-05-08 20:30 | 51.47315 | -0.48600 | 88 ft | 0 kts | 269° |